createdAt,value
2022-08-25T00:01:57.948Z,7.72
2022-08-25T00:04:26.608Z,6.22
2022-08-25T00:07:02.186Z,5.43
2022-08-25T00:09:32.908Z,5.40
2022-08-25T00:12:01.772Z,8.93
2022-08-25T00:14:32.750Z,6.35
2022-08-25T00:17:01.027Z,8.43
2022-08-25T00:19:32.119Z,6.45
2022-08-25T00:22:03.051Z,7.18
2022-08-25T00:24:31.879Z,11.70
2022-08-25T00:27:02.476Z,12.25
2022-08-25T00:29:31.774Z,12.77
2022-08-25T00:32:00.498Z,13.02
2022-08-25T00:34:34.192Z,13.20
2022-08-25T00:37:07.179Z,13.38
2022-08-25T00:39:35.911Z,13.27
2022-08-25T00:42:04.738Z,14.10
2022-08-25T00:44:40.741Z,13.57
2022-08-25T00:47:10.114Z,13.95
2022-08-25T00:49:42.694Z,13.27
2022-08-25T00:52:15.605Z,14.98
2022-08-25T00:54:48.773Z,16.30
2022-08-25T00:57:28.964Z,15.57
2022-08-25T01:00:05.972Z,15.45
2022-08-25T01:02:34.279Z,16.92
2022-08-25T01:05:02.491Z,17.02
2022-08-25T01:07:33.392Z,18.60
2022-08-25T01:10:02.481Z,18.10
2022-08-25T01:12:30.691Z,17.83
2022-08-25T01:14:59.537Z,18.75
2022-08-25T01:17:33.730Z,17.42
2022-08-25T01:20:01.899Z,18.17
2022-08-25T01:22:34.196Z,18.35
2022-08-25T01:25:06.226Z,19.40
2022-08-25T01:27:34.688Z,18.25
2022-08-25T01:30:02.961Z,16.45
2022-08-25T01:32:35.030Z,17.15
2022-08-25T01:35:03.351Z,16.25
2022-08-25T01:37:35.265Z,15.65
2022-08-25T01:40:03.809Z,16.27
2022-08-25T01:42:39.882Z,15.80
2022-08-25T01:45:10.366Z,15.40
2022-08-25T01:47:38.977Z,16.13
2022-08-25T01:50:08.985Z,14.77
2022-08-25T01:52:53.052Z,13.80
2022-08-25T01:55:21.785Z,15.10
2022-08-25T01:57:50.540Z,15.18
2022-08-25T02:00:20.617Z,17.60
2022-08-25T02:02:52.328Z,15.02
2022-08-25T02:05:23.733Z,16.33
2022-08-25T02:07:53.660Z,14.25
2022-08-25T02:10:22.442Z,15.27
2022-08-25T02:12:51.739Z,14.43
2022-08-25T02:15:22.903Z,15.07
2022-08-25T02:17:51.089Z,15.60
2022-08-25T02:20:19.296Z,16.38
2022-08-25T02:22:56.526Z,14.68
2022-08-25T02:25:26.941Z,14.90
2022-08-25T02:27:55.161Z,14.73
2022-08-25T02:30:24.129Z,16.85
2022-08-25T02:32:52.478Z,17.95
2022-08-25T02:35:20.972Z,17.83
2022-08-25T02:37:49.276Z,18.15
2022-08-25T02:40:17.605Z,18.73
2022-08-25T02:42:47.376Z,17.08
2022-08-25T02:45:15.752Z,17.33
2022-08-25T02:47:44.100Z,16.52
2022-08-25T02:50:13.189Z,21.42
2022-08-25T02:52:41.433Z,18.63
2022-08-25T02:55:14.318Z,21.20
2022-08-25T02:57:43.247Z,20.98
2022-08-25T03:00:15.312Z,22.42
2022-08-25T03:02:44.675Z,22.58
2022-08-25T03:05:14.202Z,25.52
2022-08-25T03:07:42.795Z,26.25
2022-08-25T03:10:15.366Z,24.95
2022-08-25T03:12:43.860Z,28.92
2022-08-25T03:15:16.785Z,31.23
2022-08-25T03:17:50.568Z,33.65
2022-08-25T03:20:19.824Z,34.22
2022-08-25T03:22:48.034Z,35.80
2022-08-25T03:25:33.845Z,32.05
2022-08-25T03:28:05.397Z,30.17
2022-08-25T03:30:35.492Z,30.75
2022-08-25T03:33:03.878Z,33.97
2022-08-25T03:35:32.178Z,30.30
2022-08-25T03:38:02.119Z,35.00
2022-08-25T03:40:30.797Z,35.63
2022-08-25T03:42:59.031Z,43.20
2022-08-25T03:45:29.876Z,44.95
2022-08-25T03:47:59.477Z,39.20
2022-08-25T03:50:27.846Z,43.20
2022-08-25T03:52:58.277Z,43.85
2022-08-25T03:55:27.476Z,41.58
2022-08-25T03:57:56.340Z,46.47
2022-08-25T04:00:25.062Z,38.33
2022-08-25T04:02:53.974Z,42.95
2022-08-25T04:05:26.799Z,42.95
2022-08-25T04:07:55.869Z,47.78
2022-08-25T04:10:24.120Z,42.75
2022-08-25T04:12:55.132Z,39.88
2022-08-25T04:15:24.056Z,44.85
2022-08-25T04:17:58.803Z,44.78
2022-08-25T04:20:28.467Z,42.90
2022-08-25T04:23:00.576Z,44.00
2022-08-25T04:25:28.995Z,42.03
2022-08-25T04:27:57.690Z,37.97
2022-08-25T04:30:26.115Z,40.75
2022-08-25T04:32:54.307Z,41.17
2022-08-25T04:35:23.594Z,46.78
2022-08-25T04:37:53.421Z,37.05
2022-08-25T04:40:28.824Z,41.33
2022-08-25T04:42:57.552Z,41.63
2022-08-25T04:45:25.836Z,39.42
2022-08-25T04:47:55.275Z,39.33
2022-08-25T04:50:23.501Z,38.05
2022-08-25T04:52:53.091Z,38.30
2022-08-25T04:55:22.493Z,40.95
2022-08-25T04:57:50.752Z,41.17
2022-08-25T05:00:19.822Z,40.55
2022-08-25T05:02:48.140Z,40.72
2022-08-25T05:05:16.684Z,39.70
2022-08-25T05:07:45.479Z,42.33
2022-08-25T05:10:15.145Z,37.42
2022-08-25T05:12:45.561Z,40.15
2022-08-25T05:15:31.209Z,37.08
2022-08-25T05:18:00.152Z,43.15
2022-08-25T05:20:28.449Z,44.13
2022-08-25T05:22:56.668Z,39.10
2022-08-25T05:25:26.350Z,39.70
2022-08-25T05:27:54.571Z,35.67
2022-08-25T05:30:22.841Z,34.47
2022-08-25T05:32:51.067Z,34.80
2022-08-25T05:35:20.256Z,33.05
2022-08-25T05:37:48.818Z,29.90
2022-08-25T05:40:17.113Z,27.42
2022-08-25T05:42:46.952Z,23.92
2022-08-25T05:45:20.402Z,23.48
2022-08-25T05:47:49.252Z,21.02
2022-08-25T05:50:18.038Z,20.88
2022-08-25T05:52:46.721Z,20.50
2022-08-25T05:55:15.605Z,19.15
2022-08-25T05:57:44.070Z,18.58
2022-08-25T06:00:14.727Z,16.05
2022-08-25T06:02:43.696Z,18.42
2022-08-25T06:05:14.080Z,16.55
2022-08-25T06:07:42.655Z,15.48
2022-08-25T06:10:13.473Z,14.45
2022-08-25T06:12:45.478Z,14.02
2022-08-25T06:15:16.627Z,19.58
2022-08-25T06:17:44.847Z,14.35
2022-08-25T06:20:16.789Z,16.15
2022-08-25T06:22:45.287Z,13.82
2022-08-25T06:25:15.387Z,12.98
2022-08-25T06:27:43.967Z,11.73
2022-08-25T06:30:21.298Z,12.15
2022-08-25T06:32:52.904Z,13.32
2022-08-25T06:35:21.556Z,12.13
2022-08-25T06:37:50.074Z,12.80
2022-08-25T06:40:18.412Z,12.77
2022-08-25T06:42:49.977Z,13.90
2022-08-25T06:45:20.105Z,14.60
2022-08-25T06:47:48.319Z,11.75
2022-08-25T06:50:16.706Z,10.82
2022-08-25T06:52:46.755Z,11.40
2022-08-25T06:55:15.394Z,11.02
2022-08-25T06:57:43.638Z,12.02
2022-08-25T07:00:12.935Z,11.45
2022-08-25T07:02:42.724Z,12.40
2022-08-25T07:05:17.146Z,14.43
2022-08-25T07:07:55.043Z,13.80
2022-08-25T07:10:23.783Z,10.68
2022-08-25T07:12:54.977Z,9.15
2022-08-25T07:15:23.313Z,9.45
2022-08-25T07:17:53.020Z,13.90
2022-08-25T07:20:21.296Z,10.25
2022-08-25T07:22:49.706Z,11.23
2022-08-25T07:25:18.314Z,16.13
2022-08-25T07:27:47.137Z,17.33
2022-08-25T07:30:15.529Z,24.67
2022-08-25T07:32:44.107Z,16.67
2022-08-25T07:35:16.062Z,16.77
2022-08-25T07:37:49.947Z,17.42
2022-08-25T07:40:21.292Z,14.02
2022-08-25T07:42:50.453Z,16.48
2022-08-25T07:45:25.478Z,12.95
2022-08-25T07:47:53.930Z,14.48
2022-08-25T07:50:24.223Z,8.65
2022-08-25T07:52:55.289Z,6.20
2022-08-25T07:55:25.342Z,6.47
2022-08-25T07:57:57.312Z,5.57
2022-08-25T08:00:27.699Z,8.32
2022-08-25T08:02:56.570Z,9.70
2022-08-25T08:05:27.506Z,8.68
2022-08-25T08:07:56.362Z,11.90
2022-08-25T08:13:18.084Z,6.65
2022-08-25T08:15:47.295Z,14.00
2022-08-25T08:18:15.902Z,6.00
2022-08-25T08:20:47.009Z,7.32
2022-08-25T08:23:16.129Z,7.50
2022-08-25T08:25:44.397Z,3.40
2022-08-25T08:28:12.681Z,3.95
2022-08-25T08:30:53.164Z,5.18
2022-08-25T08:33:24.980Z,7.38
2022-08-25T08:36:05.162Z,4.35
2022-08-25T08:38:34.946Z,4.80
2022-08-25T08:42:07.664Z,7.55
2022-08-25T08:44:44.210Z,7.00
2022-08-25T08:47:21.111Z,6.13
2022-08-25T08:49:57.932Z,5.75
2022-08-25T08:52:39.071Z,6.75
2022-08-25T08:55:12.724Z,6.53
2022-08-25T09:00:23.025Z,1.65
2022-08-25T09:02:57.671Z,2.47
2022-08-25T09:05:30.630Z,4.25
2022-08-25T09:08:08.305Z,2.70
2022-08-25T09:10:50.440Z,4.03
2022-08-25T09:13:35.517Z,11.88
2022-08-25T09:16:33.847Z,9.70
2022-08-25T09:21:48.687Z,5.93
2022-08-25T09:24:36.250Z,12.93
2022-08-25T09:27:16.007Z,4.93
2022-08-25T09:29:56.517Z,3.25
2022-08-25T09:32:31.201Z,4.47
2022-08-25T09:35:02.375Z,5.85
2022-08-25T09:37:30.621Z,10.73
2022-08-25T09:40:01.969Z,16.58
2022-08-25T09:42:50.625Z,3.03
2022-08-25T09:45:42.304Z,2.90
2022-08-25T09:48:26.495Z,2.08
2022-08-25T09:51:02.262Z,3.08
2022-08-25T09:53:33.952Z,3.35
2022-08-25T09:56:07.534Z,4.03
2022-08-25T09:58:36.167Z,6.28
2022-08-25T10:01:13.151Z,1.40
2022-08-25T10:03:56.991Z,1.48
2022-08-25T10:06:26.396Z,6.82
2022-08-25T10:08:59.439Z,0.57
2022-08-25T10:11:40.033Z,1.90
2022-08-25T10:14:18.521Z,1.83
2022-08-25T10:16:48.849Z,3.15
2022-08-25T10:19:25.920Z,1.10
2022-08-25T10:22:07.810Z,2.97
2022-08-25T10:24:37.359Z,6.43
2022-08-25T10:27:22.725Z,1.58
2022-08-25T10:30:07.479Z,2.70
2022-08-25T10:32:49.794Z,2.10
2022-08-25T10:35:21.057Z,5.75
2022-08-25T10:38:10.139Z,3.70
2022-08-25T10:40:49.782Z,16.58
2022-08-25T10:43:31.391Z,9.23
2022-08-25T10:46:08.770Z,2.42
2022-08-25T10:48:53.794Z,5.95
2022-08-25T10:51:34.695Z,7.25
2022-08-25T10:54:13.753Z,5.68
2022-08-25T10:56:44.999Z,2.72
2022-08-25T10:59:43.836Z,3.72
2022-08-25T11:02:44.673Z,3.80
2022-08-25T11:05:24.624Z,4.13
2022-08-25T11:07:59.515Z,0.65
2022-08-25T11:10:32.885Z,4.75
2022-08-25T11:13:06.990Z,2.55
2022-08-25T11:16:06.637Z,3.38
2022-08-25T11:18:39.071Z,7.78
2022-08-25T11:21:13.984Z,3.22
2022-08-25T11:23:47.850Z,3.50
2022-08-25T11:26:22.783Z,3.95
2022-08-25T11:29:02.614Z,9.85
2022-08-25T11:31:36.903Z,11.98
2022-08-25T11:34:05.260Z,11.70
2022-08-25T11:36:36.901Z,14.60
2022-08-25T11:39:16.682Z,14.82
2022-08-25T11:41:58.618Z,16.33
2022-08-25T11:44:53.777Z,15.73
2022-08-25T11:47:42.344Z,18.13
2022-08-25T11:50:30.236Z,19.75
2022-08-25T11:53:04.137Z,19.27
2022-08-25T11:55:49.862Z,18.45
2022-08-25T11:58:33.935Z,17.10
2022-08-25T12:01:03.819Z,20.83
2022-08-25T12:04:14.931Z,19.30
2022-08-25T12:07:37.148Z,18.88
2022-08-25T12:10:21.639Z,19.45
2022-08-25T12:13:29.503Z,22.08
2022-08-25T12:16:00.727Z,20.85
2022-08-25T12:18:45.907Z,19.35
2022-08-25T12:21:30.154Z,22.25
2022-08-25T12:24:13.236Z,21.55
2022-08-25T12:27:00.434Z,19.95
2022-08-25T12:29:34.008Z,19.50
2022-08-25T12:32:27.491Z,17.10
2022-08-25T12:35:29.535Z,18.30
2022-08-25T12:38:10.002Z,18.00
2022-08-25T12:40:53.923Z,16.17
2022-08-25T12:43:27.725Z,17.90
2022-08-25T12:46:35.980Z,23.30
2022-08-25T12:49:06.559Z,20.92
2022-08-25T12:51:53.419Z,20.80
2022-08-25T12:54:33.705Z,18.40
2022-08-25T12:57:06.256Z,18.05
2022-08-25T12:59:37.978Z,16.92
2022-08-25T13:02:29.557Z,16.30
2022-08-25T13:05:13.460Z,13.85
2022-08-25T13:07:59.547Z,16.98
2022-08-25T13:10:51.740Z,13.38
2022-08-25T13:13:39.072Z,18.85
2022-08-25T13:16:10.023Z,15.85
2022-08-25T13:18:40.144Z,13.32
2022-08-25T13:21:16.116Z,17.70
2022-08-25T13:23:53.913Z,16.63
2022-08-25T13:26:26.990Z,13.52
2022-08-25T13:28:59.402Z,16.92
2022-08-25T13:31:29.689Z,16.80
2022-08-25T13:34:02.347Z,20.73
2022-08-25T13:36:51.975Z,21.73
2022-08-25T13:39:45.295Z,20.13
2022-08-25T13:42:17.507Z,21.95
2022-08-25T13:44:51.908Z,24.35
2022-08-25T13:47:43.669Z,24.60
2022-08-25T13:50:23.766Z,23.85
2022-08-25T13:52:58.254Z,23.23
2022-08-25T13:55:38.129Z,24.95
2022-08-25T13:58:32.535Z,26.38
2022-08-25T14:01:23.070Z,29.52
2022-08-25T14:04:26.815Z,23.65
2022-08-25T14:07:14.567Z,25.55
2022-08-25T14:09:48.944Z,20.23
2022-08-25T14:12:35.424Z,21.80
2022-08-25T14:15:10.563Z,17.00
2022-08-25T14:17:42.302Z,18.13
2022-08-25T14:20:25.642Z,21.13
2022-08-25T14:22:58.385Z,14.77
2022-08-25T14:25:31.412Z,16.10
2022-08-25T14:28:10.854Z,15.68
2022-08-25T14:30:47.280Z,11.80
2022-08-25T14:33:17.111Z,13.68
2022-08-25T14:35:48.978Z,15.93
2022-08-25T14:38:18.643Z,14.73
2022-08-25T14:40:50.268Z,15.20
2022-08-25T14:43:23.636Z,15.93
2022-08-25T14:45:54.274Z,11.93
2022-08-25T14:48:27.158Z,18.88
2022-08-25T14:50:57.392Z,13.27
2022-08-25T14:53:26.892Z,9.95
2022-08-25T14:55:58.952Z,13.15
2022-08-25T14:58:33.985Z,15.02
2022-08-25T15:01:06.171Z,9.93
2022-08-25T15:03:38.962Z,16.60
2022-08-25T15:06:07.807Z,15.63
2022-08-25T15:08:57.282Z,19.27
2022-08-25T15:11:25.972Z,16.38
2022-08-25T15:13:54.870Z,15.70
2022-08-25T15:16:33.968Z,13.48
2022-08-25T15:19:06.733Z,20.02
2022-08-25T15:21:36.993Z,14.23
2022-08-25T15:24:05.843Z,14.60
2022-08-25T15:26:40.149Z,12.85
2022-08-25T15:29:08.413Z,14.45
2022-08-25T15:31:40.088Z,12.95
2022-08-25T15:34:11.728Z,15.90
2022-08-25T15:36:41.591Z,19.45
2022-08-25T15:39:11.008Z,13.55
2022-08-25T15:41:42.647Z,22.20
2022-08-25T15:44:12.473Z,18.92
2022-08-25T15:46:42.996Z,12.30
2022-08-25T15:49:20.724Z,12.70
2022-08-25T15:51:52.660Z,14.13
2022-08-25T15:54:22.691Z,10.93
2022-08-25T15:56:51.729Z,15.10
2022-08-25T15:59:21.178Z,10.15
2022-08-25T16:01:53.763Z,16.52
2022-08-25T16:04:23.350Z,12.18
2022-08-25T16:06:51.925Z,10.70
2022-08-25T16:09:22.895Z,11.05
2022-08-25T16:11:56.478Z,9.80
2022-08-25T16:14:25.489Z,10.43
2022-08-25T16:16:58.540Z,8.27
2022-08-25T16:19:28.688Z,6.30
2022-08-25T16:21:57.776Z,5.28
2022-08-25T16:24:26.819Z,6.57
2022-08-25T16:27:00.195Z,6.97
2022-08-25T16:29:40.236Z,7.55
2022-08-25T16:32:11.233Z,13.93
2022-08-25T16:34:42.730Z,10.05
2022-08-25T16:37:12.858Z,10.80
2022-08-25T16:39:44.248Z,9.73
2022-08-25T16:42:13.057Z,10.80
2022-08-25T16:44:41.290Z,7.93
2022-08-25T16:47:14.097Z,13.65
2022-08-25T16:49:43.005Z,9.88
2022-08-25T16:52:28.480Z,6.70
2022-08-25T16:55:16.370Z,11.95
2022-08-25T16:57:47.649Z,8.02
2022-08-25T17:00:19.351Z,9.20
2022-08-25T17:02:51.525Z,10.10
2022-08-25T17:05:20.379Z,4.82
2022-08-25T17:08:09.543Z,6.10
2022-08-25T17:10:43.431Z,8.50
2022-08-25T17:13:12.918Z,3.88
2022-08-25T17:15:43.424Z,9.07
2022-08-25T17:18:13.765Z,4.47
2022-08-25T17:20:44.577Z,5.93
2022-08-25T17:23:13.771Z,9.02
2022-08-25T17:25:43.565Z,6.43
2022-08-25T17:28:13.064Z,10.23
2022-08-25T17:30:43.278Z,4.28
2022-08-25T17:33:14.226Z,5.80
2022-08-25T17:35:45.778Z,7.32
2022-08-25T17:38:15.702Z,9.05
2022-08-25T17:40:44.921Z,10.00
2022-08-25T17:43:14.183Z,7.22
2022-08-25T17:45:43.147Z,6.82
2022-08-25T17:48:13.214Z,8.93
2022-08-25T17:50:42.258Z,7.70
2022-08-25T17:53:12.119Z,9.13
2022-08-25T17:55:43.195Z,5.43
2022-08-25T17:58:14.273Z,8.73
2022-08-25T18:00:45.810Z,11.52
2022-08-25T18:03:15.464Z,8.40
2022-08-25T18:05:45.101Z,12.63
2022-08-25T18:08:14.629Z,8.93
2022-08-25T18:10:43.578Z,8.32
2022-08-25T18:13:12.133Z,10.15
2022-08-25T18:15:42.595Z,11.32
2022-08-25T18:18:12.466Z,9.73
2022-08-25T18:20:46.667Z,2.75
2022-08-25T18:23:15.694Z,5.13
2022-08-25T18:25:45.045Z,4.10
2022-08-25T18:28:13.441Z,5.88
2022-08-25T18:30:42.793Z,8.35
2022-08-25T18:33:11.319Z,4.63
2022-08-25T18:35:40.263Z,3.85
2022-08-25T18:38:29.154Z,3.83
2022-08-25T18:40:58.934Z,3.40
2022-08-25T18:43:28.947Z,3.35
2022-08-25T18:46:00.722Z,5.05
2022-08-25T18:48:29.278Z,3.10
2022-08-25T18:50:57.693Z,3.88
2022-08-25T18:53:30.706Z,4.32
2022-08-25T18:56:17.256Z,2.80
2022-08-25T18:58:45.569Z,2.72
2022-08-25T19:01:14.604Z,3.53
2022-08-25T19:03:44.523Z,5.45
2022-08-25T19:06:12.861Z,4.57
2022-08-25T19:08:42.735Z,2.97
2022-08-25T19:11:11.298Z,6.28
2022-08-25T19:13:41.186Z,3.60
2022-08-25T19:16:11.760Z,8.50
2022-08-25T19:18:41.494Z,5.10
2022-08-25T19:21:10.278Z,3.75
2022-08-25T19:23:39.139Z,5.10
2022-08-25T19:26:13.950Z,1.55
2022-08-25T19:28:48.525Z,7.38
2022-08-25T19:31:18.275Z,6.35
2022-08-25T19:33:46.948Z,7.22
2022-08-25T19:36:16.490Z,2.45
2022-08-25T19:38:45.363Z,4.10
2022-08-25T19:41:15.261Z,9.60
2022-08-25T19:43:55.611Z,5.53
2022-08-25T19:46:32.714Z,8.07
2022-08-25T19:49:07.932Z,3.83
2022-08-25T19:51:38.740Z,8.30
2022-08-25T19:54:09.049Z,4.47
2022-08-25T19:56:43.506Z,5.40
2022-08-25T19:59:23.041Z,10.65
2022-08-25T20:01:51.364Z,12.93
2022-08-25T20:04:19.732Z,7.93
2022-08-25T20:06:48.781Z,10.88
2022-08-25T20:09:35.962Z,9.70
2022-08-25T20:12:11.860Z,6.00
2022-08-25T20:14:41.306Z,8.75
2022-08-25T20:17:23.519Z,9.18
2022-08-25T20:19:58.414Z,7.80
2022-08-25T20:22:27.479Z,10.85
2022-08-25T20:24:57.587Z,9.60
2022-08-25T20:27:35.277Z,6.57
2022-08-25T20:30:06.646Z,6.97
2022-08-25T20:32:36.877Z,6.10
2022-08-25T20:35:09.197Z,2.88
2022-08-25T20:37:37.846Z,5.00
2022-08-25T20:40:08.372Z,4.63
2022-08-25T20:42:40.605Z,3.92
2022-08-25T20:45:12.411Z,5.22
2022-08-25T20:47:40.999Z,2.67
2022-08-25T20:50:11.457Z,3.97
2022-08-25T20:52:42.525Z,3.17
2022-08-25T20:55:12.311Z,4.15
2022-08-25T20:57:42.033Z,5.75
2022-08-25T21:00:12.878Z,5.43
2022-08-25T21:02:41.728Z,4.00
2022-08-25T21:05:12.153Z,12.77
2022-08-25T21:07:41.660Z,6.20
2022-08-25T21:10:14.123Z,3.55
2022-08-25T21:12:45.206Z,3.78
2022-08-25T21:15:17.905Z,4.28
2022-08-25T21:17:50.694Z,5.15
2022-08-25T21:20:19.099Z,6.97
2022-08-25T21:22:47.956Z,6.65
2022-08-25T21:25:16.233Z,1.50
2022-08-25T21:27:45.912Z,7.57
2022-08-25T21:30:16.362Z,3.28
2022-08-25T21:32:53.794Z,5.88
2022-08-25T21:35:23.186Z,2.15
2022-08-25T21:37:53.011Z,7.93
2022-08-25T21:40:23.570Z,1.27
2022-08-25T21:42:53.542Z,3.20
2022-08-25T21:45:22.177Z,4.63
2022-08-25T21:47:51.938Z,1.65
2022-08-25T21:50:21.637Z,1.95
2022-08-25T21:52:54.709Z,2.20
2022-08-25T21:55:33.469Z,1.88
2022-08-25T21:58:07.570Z,3.78
2022-08-25T22:00:37.800Z,3.90
2022-08-25T22:03:06.213Z,2.08
2022-08-25T22:05:38.371Z,2.47
2022-08-25T22:08:09.047Z,1.65
2022-08-25T22:10:43.380Z,2.10
2022-08-25T22:13:13.274Z,2.65
2022-08-25T22:15:41.475Z,1.88
2022-08-25T22:18:09.946Z,2.13
2022-08-25T22:20:39.188Z,1.77
2022-08-25T22:23:09.871Z,0.32
2022-08-25T22:25:48.981Z,1.50
2022-08-25T22:28:18.693Z,0.65
2022-08-25T22:30:47.141Z,1.13
2022-08-25T22:33:16.098Z,1.45
2022-08-25T22:35:44.997Z,1.30
2022-08-25T22:38:13.622Z,0.90
2022-08-25T22:40:42.231Z,4.22
2022-08-25T22:43:10.909Z,3.00
2022-08-25T22:45:40.732Z,2.38
2022-08-25T22:48:09.106Z,2.95
2022-08-25T22:50:38.859Z,6.00
2022-08-25T22:53:07.158Z,1.38
2022-08-25T22:55:35.550Z,5.38
2022-08-25T22:58:03.699Z,2.40
2022-08-25T23:00:31.932Z,0.63
2022-08-25T23:03:01.596Z,3.58
2022-08-25T23:05:29.864Z,1.70
2022-08-25T23:07:58.184Z,3.17
2022-08-25T23:10:27.317Z,1.92
2022-08-25T23:12:55.661Z,2.05
2022-08-25T23:15:24.206Z,1.05
2022-08-25T23:17:52.885Z,1.40
2022-08-25T23:20:45.222Z,2.83
2022-08-25T23:23:14.826Z,0.50
2022-08-25T23:25:43.075Z,0.95
2022-08-25T23:28:11.386Z,3.15
2022-08-25T23:30:39.960Z,2.17
2022-08-25T23:33:12.011Z,2.38
2022-08-25T23:35:41.678Z,3.17
2022-08-25T23:38:11.213Z,5.32
2022-08-25T23:40:43.869Z,2.80
2022-08-25T23:43:13.610Z,7.70
2022-08-25T23:45:41.993Z,5.15
2022-08-25T23:48:10.261Z,2.97
2022-08-25T23:50:45.916Z,4.13
2022-08-25T23:53:16.020Z,3.63
2022-08-25T23:55:53.146Z,1.63
2022-08-25T23:58:22.743Z,1.92
